createdAt,value
2022-12-11T00:00:23.975Z,101330.75
2022-12-11T00:02:50.783Z,101332.28
2022-12-11T00:05:17.636Z,101323.69
2022-12-11T00:07:46.799Z,101322.69
2022-12-11T00:10:13.349Z,101315.97
2022-12-11T00:12:40.128Z,101313.47
2022-12-11T00:15:07.758Z,101315.91
2022-12-11T00:17:34.786Z,101310.72
2022-12-11T00:20:01.328Z,101311.53
2022-12-11T00:22:30.441Z,101324.19
2022-12-11T00:24:57.976Z,101319.94
2022-12-11T00:27:27.070Z,101312.34
2022-12-11T00:29:53.928Z,101314.75
2022-12-11T00:32:20.934Z,101309.72
2022-12-11T00:34:47.905Z,101305.47
2022-12-11T00:37:18.841Z,101315.59
2022-12-11T00:39:45.671Z,101317.22
2022-12-11T00:42:12.427Z,101315.47
2022-12-11T00:44:41.630Z,101312.97
2022-12-11T00:47:10.419Z,101309.41
2022-12-11T00:49:38.089Z,101305.06
2022-12-11T00:52:05.486Z,101303.22
2022-12-11T00:54:36.364Z,101299.78
2022-12-11T00:57:03.852Z,101288.88
2022-12-11T00:59:33.504Z,101300.50
2022-12-11T01:02:00.760Z,101302.13
2022-12-11T01:04:27.247Z,101297.75
2022-12-11T01:06:54.264Z,101295.94
2022-12-11T01:09:39.569Z,101305.22
2022-12-11T01:12:07.409Z,101295.94
2022-12-11T01:14:35.440Z,101295.03
2022-12-11T01:17:04.356Z,101291.69
2022-12-11T01:19:31.175Z,101295.72
2022-12-11T01:21:57.776Z,101288.13
2022-12-11T01:24:24.780Z,101288.03
2022-12-11T01:26:51.816Z,101294.72
2022-12-11T01:29:19.871Z,101291.28
2022-12-11T01:31:46.756Z,101298.06
2022-12-11T01:34:15.828Z,101299.66
2022-12-11T01:36:42.772Z,101303.81
2022-12-11T01:39:09.814Z,101296.09
2022-12-11T01:41:36.629Z,101296.91
2022-12-11T01:44:25.116Z,101298.53
2022-12-11T01:46:53.874Z,101305.22
2022-12-11T01:49:23.429Z,101307.84
2022-12-11T01:51:58.068Z,101305.09
2022-12-11T01:54:28.354Z,101301.78
2022-12-11T01:57:00.301Z,101301.78
2022-12-11T01:59:31.065Z,101304.19
2022-12-11T02:02:05.054Z,101293.16
2022-12-11T02:04:36.549Z,101296.50
2022-12-11T02:07:04.177Z,101301.44
2022-12-11T02:09:36.660Z,101291.22
2022-12-11T02:12:29.532Z,101291.22
2022-12-11T02:14:56.668Z,101286.97
2022-12-11T02:17:34.688Z,101292.03
2022-12-11T02:20:12.311Z,101289.41
2022-12-11T02:22:56.736Z,101280.09
2022-12-11T02:25:32.686Z,101279.19
2022-12-11T02:28:38.394Z,101283.31
2022-12-11T02:31:15.855Z,101277.47
2022-12-11T02:34:02.991Z,101269.88
2022-12-11T02:36:35.770Z,101272.41
2022-12-11T02:39:05.875Z,101269.88
2022-12-11T02:41:34.419Z,101266.53
2022-12-11T02:44:02.616Z,101260.69
2022-12-11T02:46:33.731Z,101258.03
2022-12-11T02:49:03.184Z,101262.97
2022-12-11T02:51:36.719Z,101260.44
2022-12-11T02:54:06.517Z,101261.16
2022-12-11T02:56:46.989Z,101265.31
2022-12-11T02:59:20.642Z,101266.22
2022-12-11T03:01:47.828Z,101266.22
2022-12-11T03:04:14.591Z,101266.91
2022-12-11T03:06:46.891Z,101264.38
2022-12-11T03:09:13.549Z,101270.25
2022-12-11T03:11:40.106Z,101260.94
2022-12-11T03:14:08.606Z,101264.25
2022-12-11T03:16:39.744Z,101259.19
2022-12-11T03:19:21.903Z,101265.88
2022-12-11T03:22:11.093Z,101270.84
2022-12-11T03:24:52.110Z,101264.19
2022-12-11T03:27:28.253Z,101266.72
2022-12-11T03:30:02.802Z,101264.97
2022-12-11T03:32:37.819Z,101264.88
2022-12-11T03:35:12.275Z,101261.31
2022-12-11T03:37:42.400Z,101265.56
2022-12-11T03:40:14.803Z,101261.31
2022-12-11T03:42:43.775Z,101267.88
2022-12-11T03:45:12.197Z,101269.59
2022-12-11T03:47:40.001Z,101265.34
2022-12-11T03:50:10.988Z,101269.59
2022-12-11T03:52:45.803Z,101266.28
2022-12-11T03:55:15.196Z,101260.41
2022-12-11T03:57:43.954Z,101252.91
2022-12-11T04:00:15.870Z,101257.06
2022-12-11T04:02:43.701Z,101255.34
2022-12-11T04:05:12.123Z,101254.53
2022-12-11T04:07:40.121Z,101251.09
2022-12-11T04:10:09.366Z,101257.75
2022-12-11T04:12:37.246Z,101252.69
2022-12-11T04:15:04.509Z,101250.19
2022-12-11T04:17:55.107Z,101252.59
2022-12-11T04:20:40.667Z,101259.25
2022-12-11T04:23:31.880Z,101260.28
2022-12-11T04:26:16.117Z,101247.75
2022-12-11T04:28:43.841Z,101254.44
2022-12-11T04:31:15.674Z,101251.09
2022-12-11T04:33:42.836Z,101249.38
2022-12-11T04:36:12.059Z,101239.38
2022-12-11T04:38:39.858Z,101237.72
2022-12-11T04:41:10.825Z,101241.97
2022-12-11T04:43:38.168Z,101241.19
2022-12-11T04:46:17.489Z,101238.66
2022-12-11T04:48:44.220Z,101236.91
2022-12-11T04:51:11.386Z,101227.72
2022-12-11T04:53:38.816Z,101230.38
2022-12-11T04:56:06.344Z,101229.44
2022-12-11T04:58:33.179Z,101230.38
2022-12-11T05:00:59.831Z,101230.38
2022-12-11T05:03:26.700Z,101234.63
2022-12-11T05:05:55.214Z,101230.47
2022-12-11T05:08:21.922Z,101243.03
2022-12-11T05:10:59.497Z,101236.44
2022-12-11T05:13:27.827Z,101241.50
2022-12-11T05:15:57.151Z,101246.78
2022-12-11T05:18:24.253Z,101246.69
2022-12-11T05:21:01.495Z,101244.16
2022-12-11T05:23:28.694Z,101240.81
2022-12-11T05:26:00.708Z,101239.88
2022-12-11T05:28:34.523Z,101237.47
2022-12-11T05:31:04.516Z,101225.63
2022-12-11T05:33:31.924Z,101233.09
2022-12-11T05:35:58.955Z,101227.34
2022-12-11T05:38:26.032Z,101224.81
2022-12-11T05:41:08.121Z,101225.75
2022-12-11T05:43:39.172Z,101227.25
2022-12-11T05:46:11.087Z,101228.03
2022-12-11T05:48:38.814Z,101235.75
2022-12-11T05:51:07.226Z,101236.56
2022-12-11T05:53:36.473Z,101231.50
2022-12-11T05:56:10.941Z,101229.88
2022-12-11T05:58:43.102Z,101228.38
2022-12-11T06:01:15.688Z,101231.13
2022-12-11T06:03:45.067Z,101221.81
2022-12-11T06:06:12.172Z,101220.78
2022-12-11T06:08:39.138Z,101221.69
2022-12-11T06:11:06.797Z,101216.75
2022-12-11T06:13:34.310Z,101211.00
2022-12-11T06:16:05.776Z,101217.75
2022-12-11T06:18:36.461Z,101223.66
2022-12-11T06:21:10.987Z,101216.97
2022-12-11T06:23:40.086Z,101211.00
2022-12-11T06:26:07.316Z,101216.88
2022-12-11T06:28:34.722Z,101223.53
2022-12-11T06:31:02.358Z,101213.53
2022-12-11T06:33:29.381Z,101217.75
2022-12-11T06:35:56.988Z,101215.34
2022-12-11T06:38:23.501Z,101218.00
2022-12-11T06:41:02.703Z,101224.66
2022-12-11T06:43:29.289Z,101216.38
2022-12-11T06:45:59.252Z,101222.25
2022-12-11T06:48:31.402Z,101223.97
2022-12-11T06:50:58.321Z,101230.75
2022-12-11T06:53:25.173Z,101230.75
2022-12-11T06:55:52.034Z,101237.44
2022-12-11T06:58:18.938Z,101232.38
2022-12-11T07:00:45.614Z,101241.56
2022-12-11T07:03:13.781Z,101233.97
2022-12-11T07:05:40.917Z,101234.09
2022-12-11T07:08:07.915Z,101231.44
2022-12-11T07:10:35.061Z,101236.63
2022-12-11T07:13:06.189Z,101240.75
2022-12-11T07:15:34.399Z,101244.91
2022-12-11T07:18:03.036Z,101249.16
2022-12-11T07:20:30.879Z,101243.28
2022-12-11T07:23:00.551Z,101245.09
2022-12-11T07:25:27.187Z,101241.88
2022-12-11T07:27:55.939Z,101245.09
2022-12-11T07:30:22.726Z,101245.09
2022-12-11T07:32:49.634Z,101244.28
2022-12-11T07:35:19.112Z,101242.81
2022-12-11T07:37:48.238Z,101246.13
2022-12-11T07:40:14.929Z,101244.53
2022-12-11T07:42:46.305Z,101253.72
2022-12-11T07:45:13.265Z,101253.03
2022-12-11T07:47:40.460Z,101252.91
2022-12-11T07:50:07.496Z,101253.03
2022-12-11T07:52:34.655Z,101245.44
2022-12-11T07:55:01.217Z,101258.09
2022-12-11T07:57:28.592Z,101249.69
2022-12-11T07:59:55.629Z,101260.50
2022-12-11T08:02:24.099Z,101257.84
2022-12-11T08:04:50.781Z,101256.13
2022-12-11T08:07:18.011Z,101261.91
2022-12-11T08:09:44.882Z,101256.03
2022-12-11T08:12:12.925Z,101248.47
2022-12-11T08:14:39.438Z,101260.28
2022-12-11T08:17:08.691Z,101256.94
2022-12-11T08:19:35.210Z,101259.59
2022-12-11T08:22:02.563Z,101268.19
2022-12-11T08:24:29.828Z,101263.16
2022-12-11T08:26:57.026Z,101265.56
2022-12-11T08:29:25.906Z,101264.53
2022-12-11T08:31:53.635Z,101257.84
2022-12-11T08:34:20.891Z,101262.22
2022-12-11T08:36:48.227Z,101264.75
2022-12-11T08:39:14.918Z,101260.81
2022-12-11T08:41:45.579Z,101273.09
2022-12-11T08:44:16.922Z,101263.16
2022-12-11T08:46:44.585Z,101261.56
2022-12-11T08:49:11.470Z,101264.19
2022-12-11T08:51:40.476Z,101263.69
2022-12-11T08:54:07.484Z,101262.91
2022-12-11T08:56:34.800Z,101254.28
2022-12-11T08:59:02.323Z,101266.22
2022-12-11T09:01:29.253Z,101254.59
2022-12-11T09:03:57.249Z,101257.34
2022-12-11T09:06:25.952Z,101252.41
2022-12-11T09:08:53.849Z,101264.31
2022-12-11T09:11:26.318Z,101261.00
2022-12-11T09:13:53.748Z,101249.97
2022-12-11T09:16:23.056Z,101247.34
2022-12-11T09:18:51.992Z,101248.72
2022-12-11T09:21:21.465Z,101244.16
2022-12-11T09:23:52.655Z,101237.06
2022-12-11T09:26:20.220Z,101242.75
2022-12-11T09:28:47.567Z,101243.13
2022-12-11T09:31:18.795Z,101239.34
2022-12-11T09:33:46.114Z,101242.47
2022-12-11T09:36:15.614Z,101238.22
2022-12-11T09:38:44.197Z,101232.25
2022-12-11T09:41:29.831Z,101233.06
2022-12-11T09:44:07.706Z,101232.94
2022-12-11T09:46:39.911Z,101233.66
2022-12-11T09:49:19.207Z,101230.00
2022-12-11T09:52:03.708Z,101234.22
2022-12-11T09:54:30.278Z,101234.81
2022-12-11T09:56:57.940Z,101229.66
2022-12-11T09:59:27.638Z,101229.56
2022-12-11T10:01:57.123Z,101233.09
2022-12-11T10:04:41.757Z,101232.09
2022-12-11T10:07:20.018Z,101226.91
2022-12-11T10:09:56.907Z,101228.91
2022-12-11T10:12:49.566Z,101230.41
2022-12-11T10:15:37.402Z,101220.84
2022-12-11T10:18:10.233Z,101230.66
2022-12-11T10:20:40.666Z,101232.88
2022-12-11T10:23:09.753Z,101228.41
2022-12-11T10:25:41.049Z,101230.00
2022-12-11T10:28:20.015Z,101225.75
2022-12-11T10:31:04.197Z,101223.34
2022-12-11T10:33:57.075Z,101221.81
2022-12-11T10:36:29.675Z,101227.59
2022-12-11T10:38:56.815Z,101222.63
2022-12-11T10:41:33.680Z,101218.28
2022-12-11T10:44:01.885Z,101214.63
2022-12-11T10:46:32.920Z,101217.84
2022-12-11T10:49:00.768Z,101217.63
2022-12-11T10:51:30.304Z,101222.56
2022-12-11T10:54:07.305Z,101212.56
2022-12-11T10:56:37.797Z,101209.09
2022-12-11T10:59:05.125Z,101215.09
2022-12-11T11:01:32.907Z,101208.97
2022-12-11T11:04:03.205Z,101207.13
2022-12-11T11:06:30.658Z,101211.06
2022-12-11T11:08:59.368Z,101211.88
2022-12-11T11:11:28.056Z,101207.59
2022-12-11T11:14:09.922Z,101206.69
2022-12-11T11:16:41.261Z,101201.53
2022-12-11T11:19:19.671Z,101204.06
2022-12-11T11:21:51.278Z,101192.09
2022-12-11T11:24:28.805Z,101189.44
2022-12-11T11:27:12.781Z,101189.34
2022-12-11T11:29:41.684Z,101185.63
2022-12-11T11:32:24.881Z,101186.34
2022-12-11T11:34:51.808Z,101188.88
2022-12-11T11:37:33.897Z,101179.44
2022-12-11T11:40:22.266Z,101181.28
2022-12-11T11:43:07.171Z,101180.38
2022-12-11T11:45:44.036Z,101184.50
2022-12-11T11:48:21.543Z,101180.25
2022-12-11T11:50:50.848Z,101178.19
2022-12-11T11:53:26.550Z,101167.72
2022-12-11T11:56:14.818Z,101172.09
2022-12-11T11:58:46.946Z,101163.44
2022-12-11T12:01:19.082Z,101160.91
2022-12-11T12:03:48.929Z,101162.75
2022-12-11T12:06:36.412Z,101172.91
2022-12-11T12:09:23.047Z,101172.09
2022-12-11T12:12:08.739Z,101164.38
2022-12-11T12:14:52.847Z,101171.28
2022-12-11T12:17:56.888Z,101158.50
2022-12-11T12:20:53.698Z,101160.09
2022-12-11T12:23:47.037Z,101158.25
2022-12-11T12:26:32.490Z,101160.09
2022-12-11T12:29:15.862Z,101159.09
2022-12-11T12:32:03.496Z,101155.63
2022-12-11T12:34:46.685Z,101158.84
2022-12-11T12:37:28.154Z,101154.47
2022-12-11T12:40:15.343Z,101154.38
2022-12-11T12:43:26.100Z,101154.25
2022-12-11T12:46:01.956Z,101153.44
2022-12-11T12:48:32.292Z,101151.81
2022-12-11T12:50:59.143Z,101157.00
2022-12-11T12:53:34.091Z,101155.50
2022-12-11T12:56:03.117Z,101158.03
2022-12-11T12:58:36.157Z,101154.81
2022-12-11T13:01:12.785Z,101155.50
2022-12-11T13:03:51.285Z,101152.97
2022-12-11T13:06:30.507Z,101154.59
2022-12-11T13:08:57.667Z,101155.63
2022-12-11T13:11:37.374Z,101156.44
2022-12-11T13:14:32.601Z,101158.25
2022-12-11T13:17:21.698Z,101154.25
2022-12-11T13:19:53.284Z,101162.88
2022-12-11T13:22:24.656Z,101161.97
2022-12-11T13:25:16.799Z,101169.56
2022-12-11T13:27:46.054Z,101160.09
2022-12-11T13:30:15.757Z,101169.31
2022-12-11T13:33:15.957Z,101168.38
2022-12-11T13:35:45.935Z,101155.03
2022-12-11T13:38:21.446Z,101160.78
2022-12-11T13:40:54.408Z,101164.97
2022-12-11T13:43:26.303Z,101164.97
2022-12-11T13:45:57.783Z,101165.19
2022-12-11T13:48:29.375Z,101161.97
2022-12-11T13:50:58.167Z,101169.44
2022-12-11T13:53:25.477Z,101163.69
2022-12-11T13:56:01.404Z,101159.53
2022-12-11T13:58:29.338Z,101160.56
2022-12-11T14:01:27.554Z,101170.81
2022-12-11T14:03:56.083Z,101169.31
2022-12-11T14:06:23.020Z,101166.91
2022-12-11T14:08:57.451Z,101166.22
2022-12-11T14:11:29.845Z,101172.09
2022-12-11T14:14:00.782Z,101175.41
2022-12-11T14:16:29.269Z,101174.16
2022-12-11T14:19:00.303Z,101167.47
2022-12-11T14:21:27.234Z,101164.25
2022-12-11T14:23:57.571Z,101173.44
2022-12-11T14:26:26.260Z,101177.69
2022-12-11T14:28:53.760Z,101174.38
2022-12-11T14:31:41.840Z,101172.75
2022-12-11T14:34:15.347Z,101172.06
2022-12-11T14:36:44.499Z,101172.88
2022-12-11T14:39:19.706Z,101171.38
2022-12-11T14:41:53.269Z,101169.88
2022-12-11T14:44:23.618Z,101174.94
2022-12-11T14:46:57.100Z,101174.34
2022-12-11T14:49:31.702Z,101172.75
2022-12-11T14:51:59.945Z,101168.38
2022-12-11T14:54:38.673Z,101165.03
2022-12-11T14:57:10.741Z,101167.69
2022-12-11T14:59:46.303Z,101169.28
2022-12-11T15:02:32.830Z,101166.06
2022-12-11T15:05:15.359Z,101167.91
2022-12-11T15:07:53.879Z,101176.28
2022-12-11T15:10:36.495Z,101172.94
2022-12-11T15:13:08.381Z,101178.94
2022-12-11T15:15:46.432Z,101176.53
2022-12-11T15:18:30.891Z,101176.75
2022-12-11T15:21:07.163Z,101189.50
2022-12-11T15:23:53.552Z,101187.78
2022-12-11T15:26:32.446Z,101182.72
2022-12-11T15:29:23.495Z,101180.31
2022-12-11T15:32:01.209Z,101179.50
2022-12-11T15:34:33.832Z,101187.19
2022-12-11T15:37:00.459Z,101190.66
2022-12-11T15:39:27.527Z,101186.50
2022-12-11T15:41:54.234Z,101189.72
2022-12-11T15:44:23.600Z,101198.16
2022-12-11T15:46:50.740Z,101200.78
2022-12-11T15:49:19.023Z,101189.72
2022-12-11T15:51:46.280Z,101211.69
2022-12-11T15:54:13.309Z,101201.47
2022-12-11T15:56:40.388Z,101208.84
2022-12-11T15:59:07.407Z,101202.06
2022-12-11T16:01:34.689Z,101214.81
2022-12-11T16:04:04.890Z,101212.16
2022-12-11T16:06:33.421Z,101204.59
2022-12-11T16:09:00.485Z,101208.84
2022-12-11T16:11:27.486Z,101203.09
2022-12-11T16:13:58.991Z,101205.63
2022-12-11T16:16:25.641Z,101206.63
2022-12-11T16:18:52.201Z,101206.75
2022-12-11T16:21:21.643Z,101202.50
2022-12-11T16:23:51.168Z,101201.69
2022-12-11T16:26:18.194Z,101195.72
2022-12-11T16:28:44.726Z,101192.25
2022-12-11T16:31:15.563Z,101203.22
2022-12-11T16:33:42.148Z,101194.78
2022-12-11T16:36:16.684Z,101199.63
2022-12-11T16:38:53.221Z,101199.75
2022-12-11T16:41:23.577Z,101195.38
2022-12-11T16:43:50.339Z,101195.50
2022-12-11T16:46:24.653Z,101192.25
2022-12-11T16:48:51.970Z,101199.03
2022-12-11T16:51:18.812Z,101195.72
2022-12-11T16:53:46.229Z,101192.50
2022-12-11T16:56:13.814Z,101195.72
2022-12-11T16:58:40.779Z,101193.91
2022-12-11T17:01:16.081Z,101189.72
2022-12-11T17:03:44.160Z,101191.44
2022-12-11T17:06:12.984Z,101190.56
2022-12-11T17:08:40.887Z,101189.63
2022-12-11T17:11:09.220Z,101195.72
2022-12-11T17:13:36.661Z,101188.91
2022-12-11T17:16:08.286Z,101199.97
2022-12-11T17:18:35.425Z,101198.47
2022-12-11T17:21:10.068Z,101197.56
2022-12-11T17:23:37.230Z,101197.56
2022-12-11T17:26:04.897Z,101205.16
2022-12-11T17:28:32.264Z,101193.41
2022-12-11T17:30:59.149Z,101189.84
2022-12-11T17:33:27.082Z,101194.78
2022-12-11T17:35:56.220Z,101198.16
2022-12-11T17:38:25.628Z,101195.72
2022-12-11T17:40:52.152Z,101191.69
2022-12-11T17:43:18.661Z,101200.09
2022-12-11T17:45:47.784Z,101198.34
2022-12-11T17:48:15.493Z,101198.34
2022-12-11T17:50:47.325Z,101194.34
2022-12-11T17:53:15.830Z,101197.75
2022-12-11T17:55:44.008Z,101190.28
2022-12-11T17:58:15.902Z,101192.13
2022-12-11T18:00:45.313Z,101197.19
2022-12-11T18:03:13.213Z,101203.06
2022-12-11T18:05:46.727Z,101196.41
2022-12-11T18:08:15.094Z,101204.06
2022-12-11T18:10:41.845Z,101206.50
2022-12-11T18:13:10.520Z,101202.25
2022-12-11T18:15:38.102Z,101203.88
2022-12-11T18:18:07.354Z,101208.81
2022-12-11T18:20:34.852Z,101203.16
2022-12-11T18:23:02.140Z,101210.06
2022-12-11T18:25:28.989Z,101205.13
2022-12-11T18:27:56.127Z,101209.25
2022-12-11T18:30:24.994Z,101204.19
2022-12-11T18:32:52.176Z,101206.03
2022-12-11T18:35:20.083Z,101202.78
2022-12-11T18:37:47.340Z,101206.13
2022-12-11T18:40:15.286Z,101207.84
2022-12-11T18:42:43.183Z,101209.56
2022-12-11T18:45:11.555Z,101211.31
2022-12-11T18:47:38.239Z,101212.09
2022-12-11T18:50:08.250Z,101215.44
2022-12-11T18:52:35.275Z,101216.16
2022-12-11T18:55:02.268Z,101216.25
2022-12-11T18:57:29.859Z,101214.53
2022-12-11T18:59:56.836Z,101221.31
2022-12-11T19:02:23.543Z,101214.53
2022-12-11T19:04:50.445Z,101212.91
2022-12-11T19:07:19.389Z,101210.28
2022-12-11T19:09:50.798Z,101212.69
2022-12-11T19:12:18.198Z,101208.44
2022-12-11T19:14:47.068Z,101215.22
2022-12-11T19:17:14.370Z,101208.56
2022-12-11T19:19:41.731Z,101214.53
2022-12-11T19:22:08.976Z,101209.56
2022-12-11T19:24:36.242Z,101209.69
2022-12-11T19:27:09.959Z,101209.69
2022-12-11T19:29:41.231Z,101213.03
2022-12-11T19:32:08.431Z,101213.84
2022-12-11T19:34:35.741Z,101213.84
2022-12-11T19:37:02.677Z,101207.28
2022-12-11T19:39:29.153Z,101211.53
2022-12-11T19:41:55.739Z,101210.81
2022-12-11T19:44:25.319Z,101209.81
2022-12-11T19:46:52.235Z,101209.81
2022-12-11T19:49:19.072Z,101216.47
2022-12-11T19:51:46.345Z,101216.38
2022-12-11T19:54:15.015Z,101221.75
2022-12-11T19:56:42.616Z,101215.19
2022-12-11T19:59:14.015Z,101219.44
2022-12-11T20:01:44.882Z,101220.56
2022-12-11T20:04:15.162Z,101225.16
2022-12-11T20:06:44.915Z,101224.47
2022-12-11T20:09:12.965Z,101216.97
2022-12-11T20:11:45.230Z,101223.75
2022-12-11T20:14:20.421Z,101225.34
2022-12-11T20:19:36.160Z,101226.19
2022-12-11T20:22:06.716Z,101223.66
2022-12-11T20:24:33.422Z,101225.25
2022-12-11T20:27:02.621Z,101224.47
2022-12-11T20:29:30.164Z,101233.78
2022-12-11T20:31:59.583Z,101227.78
2022-12-11T20:34:26.877Z,101221.13
2022-12-11T20:36:53.648Z,101226.06
2022-12-11T20:39:22.921Z,101232.63
2022-12-11T20:41:49.477Z,101226.19
2022-12-11T20:44:20.340Z,101223.84
2022-12-11T20:46:46.921Z,101229.13
2022-12-11T20:49:13.582Z,101224.88
2022-12-11T20:51:40.677Z,101230.63
2022-12-11T20:54:09.791Z,101228.13
2022-12-11T20:56:36.459Z,101227.63
2022-12-11T20:59:03.180Z,101227.81
2022-12-11T21:01:32.432Z,101234.59
2022-12-11T21:03:59.942Z,101239.66
2022-12-11T21:06:33.299Z,101240.38
2022-12-11T21:09:15.184Z,101232.00
2022-12-11T21:11:44.598Z,101234.28
2022-12-11T21:14:14.381Z,101232.56
2022-12-11T21:16:44.267Z,101229.22
2022-12-11T21:19:16.548Z,101232.44
2022-12-11T21:21:45.514Z,101243.72
2022-12-11T21:24:19.862Z,101238.75
2022-12-11T21:26:48.485Z,101239.59
2022-12-11T21:29:15.952Z,101231.16
2022-12-11T21:31:45.983Z,101233.59
2022-12-11T21:34:22.063Z,101230.28
2022-12-11T21:36:54.862Z,101227.94
2022-12-11T21:39:24.083Z,101224.28
2022-12-11T21:41:50.738Z,101232.69
2022-12-11T21:47:05.679Z,101222.69
2022-12-11T21:49:33.743Z,101230.97
2022-12-11T21:52:01.748Z,101231.75
2022-12-11T21:54:28.689Z,101230.03
2022-12-11T21:56:55.190Z,101240.88
2022-12-11T21:59:21.696Z,101242.56
2022-12-11T22:01:48.339Z,101242.47
2022-12-11T22:04:15.474Z,101244.28
2022-12-11T22:06:47.256Z,101245.22
2022-12-11T22:09:15.921Z,101242.69
2022-12-11T22:11:42.864Z,101246.94
2022-12-11T22:14:16.049Z,101255.44
2022-12-11T22:16:47.693Z,101249.69
2022-12-11T22:19:16.977Z,101253.22
2022-12-11T22:21:44.466Z,101252.53
2022-12-11T22:24:11.917Z,101256.00
2022-12-11T22:26:42.208Z,101249.22
2022-12-11T22:29:11.753Z,101257.47
2022-12-11T22:31:38.689Z,101253.13
2022-12-11T22:34:06.016Z,101255.66
2022-12-11T22:36:32.747Z,101254.75
2022-12-11T22:39:00.508Z,101257.38
2022-12-11T22:41:30.154Z,101260.94
2022-12-11T22:43:58.313Z,101259.09
2022-12-11T22:46:29.446Z,101261.84
2022-12-11T22:48:56.356Z,101268.63
2022-12-11T22:51:23.427Z,101264.47
2022-12-11T22:53:50.885Z,101264.47
2022-12-11T22:56:18.344Z,101265.38
2022-12-11T22:58:46.289Z,101262.03
2022-12-11T23:01:17.315Z,101258.72
2022-12-11T23:03:46.767Z,101259.63
2022-12-11T23:06:15.789Z,101261.25
2022-12-11T23:08:43.596Z,101260.31
2022-12-11T23:11:15.327Z,101262.16
2022-12-11T23:13:42.483Z,101262.25
2022-12-11T23:16:10.381Z,101263.78
2022-12-11T23:18:37.586Z,101260.56
2022-12-11T23:21:07.086Z,101262.97
2022-12-11T23:23:33.606Z,101260.63
2022-12-11T23:26:00.591Z,101262.34
2022-12-11T23:28:29.587Z,101263.28
2022-12-11T23:30:56.542Z,101261.44
2022-12-11T23:33:23.793Z,101254.66
2022-12-11T23:35:50.940Z,101261.66
2022-12-11T23:38:18.783Z,101265.81
2022-12-11T23:40:45.479Z,101263.28
2022-12-11T23:43:12.018Z,101258.91
2022-12-11T23:45:38.993Z,101261.44
2022-12-11T23:48:07.755Z,101263.78
2022-12-11T23:50:34.625Z,101264.56
2022-12-11T23:53:01.150Z,101260.31
2022-12-11T23:55:27.826Z,101267.91
2022-12-11T23:57:55.022Z,101263.78
